Time;durP1;ratioP1;P1;durP2;ratioP2;P2;SDS_P1;SDS_P2;PMS_P1;PMS_P2;Temp;Humidity;BMP_temperature;BMP_pressure;BME280_temperature;BME280_humidity;BME280_pressure;Samples;Min_cycle;Max_cycle;Signal;HPM_P1;HPM_P2
2021/07/07 00:02:11;;;;;;;2.62;2.42;;;;;;;19.13;75.13;100581.97;1707865;82;20896;-37
2021/07/07 00:04:37;;;;;;;4.50;1.98;;;;;;;19.14;75.22;100585.42;1724583;83;20933;-38
2021/07/07 00:07:05;;;;;;;9.25;2.12;;;;;;;19.12;75.33;100586.83;1724442;83;20975;-39
2021/07/07 00:09:32;;;;;;;3.17;1.80;;;;;;;19.11;75.35;100582.52;1724356;81;20955;-40
2021/07/07 00:12:00;;;;;;;2.50;2.30;;;;;;;19.09;75.45;100583.06;1724666;83;21421;-39
2021/07/07 00:14:26;;;;;;;3.33;2.15;;;;;;;19.08;75.39;100587.92;1724293;83;20895;-40
2021/07/07 00:16:54;;;;;;;3.00;2.00;;;;;;;19.06;75.54;100587.13;1724423;81;20903;-40
2021/07/07 00:19:20;;;;;;;5.35;2.27;;;;;;;19.05;75.57;100586.74;1724511;83;21067;-39
2021/07/07 00:21:49;;;;;;;2.20;2.10;;;;;;;19.03;75.61;100592.53;1724451;83;20924;-38
2021/07/07 00:24:15;;;;;;;2.42;2.22;;;;;;;19.02;75.69;100593.47;1724543;83;21318;-40
2021/07/07 00:26:41;;;;;;;3.30;2.10;;;;;;;19.01;75.65;100590.02;1721964;83;21011;-38
2021/07/07 00:29:08;;;;;;;2.52;2.02;;;;;;;19.00;75.58;100594.02;1716393;82;21050;-39
2021/07/07 00:31:35;;;;;;;2.65;1.90;;;;;;;18.99;75.60;100598.42;1709041;84;21141;-40
2021/07/07 00:34:01;;;;;;;6.37;2.83;;;;;;;18.98;75.59;100595.83;1709127;84;21016;-39
2021/07/07 00:36:28;;;;;;;2.60;2.35;;;;;;;18.98;75.42;100597.15;1709071;84;20936;-38
2021/07/07 00:38:54;;;;;;;2.98;1.98;;;;;;;18.98;75.43;100595.83;1708890;83;21533;-40
2021/07/07 00:41:21;;;;;;;2.12;2.02;;;;;;;18.98;75.32;100602.39;1708907;84;20940;-39
2021/07/07 00:43:48;;;;;;;3.00;1.95;;;;;;;18.98;75.16;100603.70;1709094;84;21142;-40
2021/07/07 00:46:14;;;;;;;3.47;1.90;;;;;;;19.00;75.08;100595.32;1708906;82;21518;-40
2021/07/07 00:48:41;;;;;;;2.58;2.00;;;;;;;19.00;75.15;100600.56;1706489;83;21495;-39
2021/07/07 00:51:07;;;;;;;2.58;2.02;;;;;;;19.00;75.02;100599.25;1711596;82;20948;-41
2021/07/07 00:53:33;;;;;;;3.52;1.90;;;;;;;18.98;75.06;100600.66;1701879;84;20975;-41
2021/07/07 00:56:00;;;;;;;2.12;1.92;;;;;;;18.98;75.11;100604.59;1711502;83;21895;-41
2021/07/07 00:58:27;;;;;;;2.27;2.08;;;;;;;18.96;75.16;100600.70;1701901;84;20936;-40
2021/07/07 01:00:54;;;;;;;2.65;2.02;;;;;;;18.96;75.44;100607.25;1711275;82;20900;-38
2021/07/07 01:03:20;;;;;;;3.75;1.90;;;;;;;18.91;75.65;100607.96;1701494;84;21043;-40
2021/07/07 01:05:47;;;;;;;2.27;2.08;;;;;;;18.88;76.17;100606.81;1711118;82;21410;-39
2021/07/07 01:08:15;;;;;;;3.75;2.17;;;;;;;18.85;76.60;100608.73;1701407;84;21550;-38
2021/07/07 01:10:42;;;;;;;2.65;2.27;;;;;;;18.80;76.99;100611.57;1711093;83;21474;-40
2021/07/07 01:13:09;;;;;;;2.58;2.40;;;;;;;18.73;77.43;100605.81;1701322;83;21003;-40
2021/07/07 01:15:36;;;;;;;4.35;2.10;;;;;;;18.70;77.77;100605.97;1711008;82;20979;-38
2021/07/07 01:18:03;;;;;;;2.20;2.10;;;;;;;18.69;77.95;100616.52;1701544;84;20936;-40
2021/07/07 01:20:30;;;;;;;4.17;2.58;;;;;;;18.65;78.18;100620.61;1711062;83;21136;-38
2021/07/07 01:22:56;;;;;;;3.27;2.27;;;;;;;18.63;78.35;100625.53;1701573;84;20969;-40
2021/07/07 01:25:23;;;;;;;2.70;2.22;;;;;;;18.60;78.60;100625.23;1711161;83;21552;-38
2021/07/07 01:27:49;;;;;;;2.17;2.08;;;;;;;18.58;78.72;100629.72;1701558;84;21537;-40
2021/07/07 01:30:21;;;;;;;6.30;2.15;;;;;;;18.55;78.90;100632.45;1711004;83;20896;-41
2021/07/07 01:32:48;;;;;;;3.22;2.35;;;;;;;18.54;79.03;100638.62;1701745;84;21135;-39
2021/07/07 01:35:16;;;;;;;3.17;1.95;;;;;;;18.51;79.27;100630.91;1710822;83;20995;-40
2021/07/07 01:37:43;;;;;;;2.33;2.08;;;;;;;18.50;79.24;100640.56;1701432;84;20992;-38
2021/07/07 01:40:14;;;;;;;3.30;2.27;;;;;;;18.50;79.33;100643.19;1711112;82;21554;-41
2021/07/07 01:42:41;;;;;;;2.15;1.95;;;;;;;18.51;79.21;100644.02;1701595;84;21012;-41
2021/07/07 01:45:09;;;;;;;2.00;1.90;;;;;;;18.50;79.00;100643.19;1710973;83;21281;-40
2021/07/07 01:47:36;;;;;;;3.20;1.90;;;;;;;18.52;78.80;100646.58;1675288;83;20917;-39
2021/07/07 01:50:05;;;;;;;3.05;2.02;;;;;;;18.55;78.38;100642.11;1645596;84;20923;-38
2021/07/07 01:52:31;;;;;;;4.80;2.02;;;;;;;18.55;77.95;100637.70;1749782;81;21050;-38
2021/07/07 01:55:00;;;;;;;2.00;1.85;;;;;;;18.57;77.59;100645.05;1749943;82;20920;-40
2021/07/07 01:57:43;;;;;;;2.10;2.00;;;;;;;18.56;77.55;100642.49;1750049;80;21155;-39
2021/07/07 01:59:56;;;;;;;3.85;2.00;;;;;;;18.57;77.40;100645.05;1747021;82;21498;-39
2021/07/07 02:02:23;;;;;;;4.80;2.10;;;;;;;18.57;77.18;100643.74;1749816;82;21494;-39
2021/07/07 02:04:49;;;;;;;2.00;1.90;;;;;;;18.58;77.14;100647.20;1749914;82;20992;-41
2021/07/07 02:07:15;;;;;;;7.25;1.87;;;;;;;18.58;76.97;100658.99;1749845;80;20905;-37
2021/07/07 02:09:42;;;;;;;3.77;2.10;;;;;;;18.58;77.06;100656.38;1749706;81;21036;-38
2021/07/07 02:12:09;;;;;;;2.17;1.90;;;;;;;18.58;77.11;100653.30;1749557;80;20903;-41
2021/07/07 02:14:37;;;;;;;2.00;1.90;;;;;;;18.59;77.07;100660.24;1749933;80;20936;-39
2021/07/07 02:17:04;;;;;;;1.98;1.60;;;;;;;18.57;77.06;100663.84;1749787;82;21576;-42
2021/07/07 02:19:30;;;;;;;3.12;2.65;;;;;;;18.57;77.23;100667.78;1749930;82;20888;-40
2021/07/07 02:21:57;;;;;;;2.72;1.80;;;;;;;18.56;77.19;100664.77;1749890;80;21129;-39
2021/07/07 02:24:24;;;;;;;5.50;1.85;;;;;;;18.55;77.17;100662.59;1749812;82;20992;-41
2021/07/07 02:26:50;;;;;;;1.85;1.75;;;;;;;18.55;77.27;100666.53;1749705;80;20972;-41
2021/07/07 02:29:17;;;;;;;4.45;1.90;;;;;;;18.55;77.34;100667.01;1750118;82;20917;-39
2021/07/07 02:31:43;;;;;;;6.50;1.80;;;;;;;18.54;77.43;100660.91;1749868;82;20928;-40
2021/07/07 02:34:09;;;;;;;4.03;1.90;;;;;;;18.55;77.45;100659.14;1750229;82;21145;-39
2021/07/07 02:36:36;;;;;;;5.35;2.10;;;;;;;18.53;77.47;100661.83;1749778;82;21473;-38
2021/07/07 02:39:04;;;;;;;2.00;1.90;;;;;;;18.52;77.59;100665.38;1750121;82;20936;-38
2021/07/07 02:41:31;;;;;;;4.45;2.17;;;;;;;18.51;77.57;100664.98;1749693;81;20967;-39
2021/07/07 02:43:58;;;;;;;2.15;1.95;;;;;;;18.50;77.62;100669.39;1750065;81;21005;-38
2021/07/07 02:46:24;;;;;;;3.05;1.80;;;;;;;18.50;77.67;100675.09;1749761;82;21296;-41
2021/07/07 02:48:52;;;;;;;3.85;2.40;;;;;;;18.49;77.80;100678.19;1747166;82;20897;-39
2021/07/07 02:51:19;;;;;;;5.92;2.20;;;;;;;18.49;77.92;100673.39;1735847;82;20972;-41
2021/07/07 02:53:45;;;;;;;4.35;1.90;;;;;;;18.49;77.92;100680.80;1735760;82;21062;-40
2021/07/07 02:56:12;;;;;;;2.40;1.70;;;;;;;18.47;77.92;100677.86;1735814;82;20944;-38
2021/07/07 02:58:38;;;;;;;2.80;2.05;;;;;;;18.47;77.91;100676.55;1714846;82;21170;-41
2021/07/07 03:01:05;;;;;;;2.62;1.85;;;;;;;18.47;77.91;100680.03;1735593;81;21436;-41
2021/07/07 03:03:32;;;;;;;6.62;1.87;;;;;;;18.47;77.92;100686.58;1735727;82;20944;-40
2021/07/07 03:06:00;;;;;;;3.05;2.00;;;;;;;18.49;77.94;100686.05;1735827;82;20948;-39
2021/07/07 03:08:32;;;;;;;4.45;1.70;;;;;;;18.47;77.90;100690.52;1735817;82;22092;-39
2021/07/07 03:11:00;;;;;;;3.80;2.17;;;;;;;18.49;77.88;100695.22;1735793;81;20936;-38
2021/07/07 03:13:28;;;;;;;2.42;2.22;;;;;;;18.48;78.14;100700.52;1735778;81;20965;-41
2021/07/07 03:15:55;;;;;;;2.20;2.00;;;;;;;18.46;78.42;100701.05;1736139;82;20952;-41
2021/07/07 03:18:22;;;;;;;5.87;2.15;;;;;;;18.42;78.83;100699.51;1714828;82;20937;-40
2021/07/07 03:20:51;;;;;;;2.05;1.85;;;;;;;18.36;79.35;100701.95;1735712;82;21486;-41
2021/07/07 03:23:19;;;;;;;7.08;2.08;;;;;;;18.31;80.02;100702.64;1735726;81;21156;-41
2021/07/07 03:25:46;;;;;;;2.75;2.00;;;;;;;18.25;80.29;100703.77;1735790;81;20913;-40
2021/07/07 03:28:13;;;;;;;4.33;2.10;;;;;;;18.19;80.75;100705.37;1735798;82;21025;-41
2021/07/07 03:30:40;;;;;;;2.35;2.15;;;;;;;18.14;81.08;100709.50;1735734;82;21435;-41
2021/07/07 03:33:07;;;;;;;3.08;2.30;;;;;;;18.07;81.56;100714.20;1736003;82;21582;-41
2021/07/07 03:35:33;;;;;;;2.95;2.08;;;;;;;18.04;81.92;100718.23;1736007;82;21894;-41
2021/07/07 03:38:00;;;;;;;7.15;2.10;;;;;;;18.02;82.20;100714.84;1715218;82;20956;-41
2021/07/07 03:40:28;;;;;;;2.33;1.92;;;;;;;18.00;82.40;100717.12;1715171;82;20994;-40
2021/07/07 03:42:57;;;;;;;2.52;2.30;;;;;;;17.99;82.48;100725.42;1735704;82;20984;-38
2021/07/07 03:45:24;;;;;;;2.37;2.17;;;;;;;17.98;82.69;100725.04;1735983;81;21712;-38
2021/07/07 03:47:52;;;;;;;3.27;2.30;;;;;;;17.97;83.17;100731.20;1735760;82;20957;-40
2021/07/07 03:50:19;;;;;;;3.02;2.35;;;;;;;17.93;83.78;100728.33;1744912;81;20999;-39
2021/07/07 03:52:46;;;;;;;3.12;2.50;;;;;;;17.83;85.03;100729.67;1749723;82;20933;-38
2021/07/07 03:55:17;;;;;;;2.50;2.37;;;;;;;17.66;86.26;100736.49;1749772;82;20932;-41
2021/07/07 03:57:44;;;;;;;2.62;2.42;;;;;;;17.50;87.30;100733.70;1749687;80;21371;-38
2021/07/07 04:00:18;;;;;;;5.03;2.87;;;;;;;17.36;88.37;100736.91;1749695;82;21167;-42
2021/07/07 04:02:44;;;;;;;4.03;2.70;;;;;;;17.26;89.35;100731.20;1749839;82;20927;-41
2021/07/07 04:05:11;;;;;;;5.58;2.75;;;;;;;17.20;90.40;100738.84;1749712;82;20968;-41
2021/07/07 04:07:39;;;;;;;3.30;2.40;;;;;;;17.18;91.16;100739.84;1749917;82;21489;-40
2021/07/07 04:10:08;;;;;;;5.45;2.85;;;;;;;17.19;91.62;100742.85;1749684;80;20952;-41
2021/07/07 04:12:35;;;;;;;9.30;2.72;;;;;;;17.20;92.23;100750.62;1750033;80;21858;-41
2021/07/07 04:15:05;;;;;;;3.17;2.83;;;;;;;17.22;92.51;100751.87;1749906;82;21518;-40
2021/07/07 04:17:32;;;;;;;3.52;2.77;;;;;;;17.25;92.80;100747.81;1749753;82;20916;-39
2021/07/07 04:19:58;;;;;;;2.60;2.40;;;;;;;17.29;92.96;100755.92;1749756;82;20937;-40
2021/07/07 04:22:25;;;;;;;4.37;2.15;;;;;;;17.33;93.28;100756.66;1749746;81;20999;-38
2021/07/07 04:24:52;;;;;;;3.10;2.85;;;;;;;17.39;93.13;100756.39;1749737;82;21078;-40
2021/07/07 04:27:18;;;;;;;2.60;2.37;;;;;;;17.41;93.12;100758.48;1749570;80;20976;-41
2021/07/07 04:29:45;;;;;;;5.42;2.35;;;;;;;17.45;93.01;100760.05;1749691;81;20933;-38
2021/07/07 04:32:11;;;;;;;2.75;2.22;;;;;;;17.48;93.05;100765.15;1749788;82;21034;-39
2021/07/07 04:34:38;;;;;;;5.37;2.58;;;;;;;17.50;93.02;100767.24;1749979;80;20961;-38
2021/07/07 04:37:05;;;;;;;2.75;2.37;;;;;;;17.51;93.20;100768.94;1722194;82;21123;-39
2021/07/07 04:39:31;;;;;;;6.47;3.10;;;;;;;17.55;93.22;100764.88;1749813;82;20889;-39
2021/07/07 04:41:58;;;;;;;6.53;2.75;;;;;;;17.57;93.13;100768.31;1750060;80;21452;-40
2021/07/07 04:44:24;;;;;;;4.65;2.85;;;;;;;17.58;93.13;100764.30;1749889;82;21455;-39
2021/07/07 04:46:50;;;;;;;4.12;3.05;;;;;;;17.57;93.28;100765.22;1750266;82;21506;-39
2021/07/07 04:49:18;;;;;;;2.67;2.58;;;;;;;17.58;93.49;100764.77;1748449;80;21352;-40
2021/07/07 04:51:45;;;;;;;3.10;2.90;;;;;;;17.58;93.56;100764.77;1735781;81;20921;-39
2021/07/07 04:54:11;;;;;;;2.98;2.77;;;;;;;17.59;93.93;100768.62;1735874;82;21004;-39
2021/07/07 04:56:38;;;;;;;6.37;2.50;;;;;;;17.65;94.07;100767.03;1735844;82;20890;-38
2021/07/07 04:59:04;;;;;;;5.42;2.90;;;;;;;17.73;94.25;100768.02;1735942;82;20834;-38
2021/07/07 05:01:31;;;;;;;4.47;2.70;;;;;;;17.86;94.49;100768.80;1715117;82;21135;-41
2021/07/07 05:03:57;;;;;;;5.70;2.80;;;;;;;17.97;93.95;100767.86;1735850;82;20975;-38
2021/07/07 05:06:25;;;;;;;5.30;2.70;;;;;;;18.06;93.58;100767.94;1735774;82;21475;-38
2021/07/07 05:08:53;;;;;;;2.80;2.60;;;;;;;18.15;93.23;100767.99;1736091;82;20976;-41
2021/07/07 05:11:20;;;;;;;2.67;2.55;;;;;;;18.27;93.11;100767.42;1735975;82;20925;-39
2021/07/07 05:13:47;;;;;;;4.80;2.40;;;;;;;18.37;92.44;100766.09;1735976;82;21993;-41
2021/07/07 05:16:13;;;;;;;2.10;2.00;;;;;;;18.49;91.91;100771.22;1735860;82;21106;-40
2021/07/07 05:18:40;;;;;;;3.45;2.27;;;;;;;18.54;90.81;100772.30;1735833;81;20890;-39
2021/07/07 05:21:06;;;;;;;4.60;2.52;;;;;;;18.61;90.25;100775.48;1736061;82;20953;-40
2021/07/07 05:23:34;;;;;;;1.95;1.85;;;;;;;18.69;89.99;100777.27;1735799;82;20980;-38
2021/07/07 05:26:04;;;;;;;4.60;2.20;;;;;;;18.78;89.09;100783.86;1714745;82;21901;-41
2021/07/07 05:28:30;;;;;;;3.98;2.50;;;;;;;18.86;89.17;100784.36;1735908;82;20918;-42
2021/07/07 05:31:05;;;;;;;10.38;2.02;;;;;;;18.93;88.80;100783.13;1735890;82;20945;-38
2021/07/07 05:33:33;;;;;;;2.22;2.00;;;;;;;19.02;88.10;100788.88;1735500;82;20929;-39
2021/07/07 05:35:55;;;;;;;2.20;2.00;;;;;;;19.12;87.80;100786.20;1735307;82;20968;-41
2021/07/07 05:38:21;;;;;;;3.30;2.00;;;;;;;19.17;86.05;100786.83;1736201;82;21119;-41
2021/07/07 05:40:48;;;;;;;4.45;2.00;;;;;;;19.23;85.54;100794.38;1735867;81;20921;-40
2021/07/07 05:43:14;;;;;;;2.30;1.90;;;;;;;19.33;85.09;100789.53;1735889;82;20933;-39
2021/07/07 05:45:42;;;;;;;2.95;1.90;;;;;;;19.44;84.72;100794.24;1735836;82;20945;-40
2021/07/07 05:48:08;;;;;;;1.87;1.70;;;;;;;19.53;83.63;100791.62;1736146;82;20842;-42
2021/07/07 05:50:34;;;;;;;3.30;2.10;;;;;;;19.65;83.79;100791.45;1742902;81;21112;-40
2021/07/07 05:53:01;;;;;;;4.30;2.45;;;;;;;19.83;83.23;100801.47;1749884;82;20921;-41
2021/07/07 05:55:28;;;;;;;5.03;2.00;;;;;;;19.96;82.42;100788.58;1750355;82;20941;-39
2021/07/07 05:57:55;;;;;;;5.85;1.87;;;;;;;20.13;81.08;100788.16;1749796;82;20975;-37
2021/07/07 06:00:24;;;;;;;2.10;2.00;;;;;;;20.38;80.80;100785.89;1750036;82;21501;-38
2021/07/07 06:02:52;;;;;;;4.03;2.00;;;;;;;20.74;79.81;100784.39;1749867;82;21062;-40
2021/07/07 06:05:19;;;;;;;3.58;2.02;;;;;;;21.22;77.58;100785.19;1749944;82;21407;-38
2021/07/07 06:07:46;;;;;;;2.92;1.80;;;;;;;21.72;76.71;100794.16;1749826;82;20924;-40
2021/07/07 06:10:19;;;;;;;5.25;1.80;;;;;;;22.22;74.49;100788.52;1749732;82;20944;-41
2021/07/07 06:12:45;;;;;;;3.87;1.62;;;;;;;22.57;71.39;100788.10;1750084;82;20892;-38
2021/07/07 06:15:14;;;;;;;2.15;1.55;;;;;;;22.90;69.48;100788.20;1749766;82;20940;-38
2021/07/07 06:17:42;;;;;;;4.25;1.90;;;;;;;23.10;68.92;100793.94;1749797;82;20999;-40
2021/07/07 06:20:11;;;;;;;9.05;2.17;;;;;;;23.15;64.58;100789.69;1749688;82;21371;-41
2021/07/07 06:22:38;;;;;;;2.58;1.85;;;;;;;23.09;65.66;100798.39;1749805;81;20932;-40
2021/07/07 06:25:06;;;;;;;4.58;1.98;;;;;;;23.24;64.85;100794.34;1721990;82;20877;-40
2021/07/07 06:27:34;;;;;;;3.27;2.00;;;;;;;23.33;64.27;100800.84;1749664;82;21078;-43
2021/07/07 06:30:01;;;;;;;4.37;1.90;;;;;;;23.28;63.00;100798.98;1749870;82;20925;-41
2021/07/07 06:32:28;;;;;;;5.30;1.60;;;;;;;23.18;63.24;100802.22;1721948;82;20920;-39
2021/07/07 06:35:00;;;;;;;8.85;2.15;;;;;;;23.21;64.30;100800.69;1749702;82;20979;-40
2021/07/07 06:37:22;;;;;;;4.50;1.70;;;;;;;23.39;62.50;100799.13;1749254;82;20920;-40
2021/07/07 06:39:49;;;;;;;5.67;1.92;;;;;;;23.34;61.42;100803.39;1749908;82;21124;-40
2021/07/07 06:42:15;;;;;;;2.08;1.98;;;;;;;23.18;62.03;100803.55;1749764;82;20940;-41
2021/07/07 06:44:41;;;;;;;4.33;2.17;;;;;;;23.10;62.61;100804.50;1749847;82;21044;-38
2021/07/07 06:47:11;;;;;;;7.05;1.80;;;;;;;22.99;63.20;100801.73;1749828;80;20964;-41
2021/07/07 06:49:36;;;;;;;3.47;2.00;;;;;;;22.89;63.15;100804.13;1749935;80;20904;-38
2021/07/07 06:52:05;;;;;;;6.17;2.00;;;;;;;22.84;63.46;100807.54;1736088;81;21125;-40
2021/07/07 06:54:32;;;;;;;6.35;2.33;;;;;;;22.87;64.01;100810.84;1735798;81;20937;-38
2021/07/07 06:56:58;;;;;;;4.97;2.30;;;;;;;22.96;64.37;100807.59;1735841;81;21435;-38
2021/07/07 06:59:26;;;;;;;4.22;1.92;;;;;;;23.14;64.70;100809.11;1735739;81;21486;-40
2021/07/07 07:01:52;;;;;;;2.87;2.10;;;;;;;23.39;64.63;100813.16;1735719;82;21526;-41
2021/07/07 07:04:20;;;;;;;2.22;2.05;;;;;;;23.68;63.27;100805.55;1735834;82;21788;-40
2021/07/07 07:06:48;;;;;;;3.90;2.20;;;;;;;23.90;62.83;100804.89;1714683;82;20985;-38
2021/07/07 07:09:16;;;;;;;3.70;2.47;;;;;;;24.12;62.63;100803.44;1735679;82;20966;-40
2021/07/07 07:11:42;;;;;;;4.15;2.52;;;;;;;24.41;60.96;100797.86;1714523;82;21515;-40
2021/07/07 07:14:09;;;;;;;4.50;2.52;;;;;;;24.79;60.06;100805.33;1736016;82;20936;-40
2021/07/07 07:16:36;;;;;;;3.47;2.12;;;;;;;25.13;60.03;100802.82;1714673;82;21110;-41
2021/07/07 07:19:03;;;;;;;5.87;2.20;;;;;;;25.48;58.34;100800.69;1735742;82;20838;-41
2021/07/07 07:21:29;;;;;;;6.65;1.98;;;;;;;25.73;55.95;100792.17;1735745;82;21035;-39
2021/07/07 07:23:56;;;;;;;2.12;1.80;;;;;;;25.94;56.35;100798.09;1735724;82;20901;-38
2021/07/07 07:26:23;;;;;;;2.08;1.80;;;;;;;26.14;53.41;100810.23;1735796;82;20933;-39
2021/07/07 07:28:50;;;;;;;6.22;2.02;;;;;;;26.03;53.98;100807.13;1736185;81;21068;-40
2021/07/07 07:31:16;;;;;;;5.60;2.25;;;;;;;26.04;54.84;100814.13;1735419;81;21931;-41
2021/07/07 07:33:43;;;;;;;7.35;2.35;;;;;;;26.22;54.70;100811.85;1714703;82;21466;-39
2021/07/07 07:36:10;;;;;;;8.00;1.98;;;;;;;26.33;53.38;100809.67;1735648;82;21495;-42
2021/07/07 07:38:43;;;;;;;3.92;1.95;;;;;;;26.17;53.07;100808.73;1736035;82;21012;-41
2021/07/07 07:41:05;;;;;;;2.67;1.90;;;;;;;25.89;52.94;100809.05;1734410;82;21768;-39
2021/07/07 07:43:32;;;;;;;6.80;2.08;;;;;;;25.53;55.01;100817.56;1714708;82;20987;-41
2021/07/07 07:46:00;;;;;;;5.60;2.25;;;;;;;25.28;55.07;100816.75;1735791;82;20959;-39
2021/07/07 07:48:26;;;;;;;7.15;2.40;;;;;;;25.13;55.60;100816.56;1735883;81;20984;-38
2021/07/07 07:50:54;;;;;;;5.58;2.08;;;;;;;24.96;55.71;100812.89;1735686;81;20890;-41
2021/07/07 07:53:21;;;;;;;3.77;1.90;;;;;;;24.90;56.03;100819.10;1735773;82;21058;-41
2021/07/07 07:55:47;;;;;;;3.62;1.60;;;;;;;24.89;55.67;100817.41;1735655;81;20973;-41
2021/07/07 07:58:18;;;;;;;7.05;1.90;;;;;;;24.86;55.12;100820.30;1735649;82;20928;-41
2021/07/07 08:00:46;;;;;;;5.42;2.05;;;;;;;24.73;55.33;100818.98;1735690;82;20941;-38
2021/07/07 08:03:13;;;;;;;5.42;2.08;;;;;;;24.61;55.83;100817.58;1736097;82;20933;-40
2021/07/07 08:05:40;;;;;;;3.95;2.12;;;;;;;24.53;56.88;100835.82;1735798;82;21090;-39
2021/07/07 08:08:07;;;;;;;7.05;2.62;;;;;;;24.57;57.40;100831.16;1735765;82;21480;-41
2021/07/07 08:10:33;;;;;;;6.53;1.95;;;;;;;24.56;57.12;100834.77;1735639;82;21550;-40
2021/07/07 08:13:00;;;;;;;3.92;1.60;;;;;;;24.49;56.43;100834.36;1735961;82;20964;-40
2021/07/07 08:15:26;;;;;;;4.35;2.15;;;;;;;24.43;56.31;100842.73;1735947;82;21585;-39
2021/07/07 08:17:54;;;;;;;6.20;1.82;;;;;;;24.40;55.28;100845.11;1715074;82;21761;-41
2021/07/07 08:20:21;;;;;;;3.00;1.80;;;;;;;24.27;55.65;100847.78;1735714;82;20961;-39
2021/07/07 08:22:50;;;;;;;5.67;1.98;;;;;;;24.30;57.01;100846.73;1736335;82;20992;-40
2021/07/07 08:25:17;;;;;;;2.42;1.98;;;;;;;24.65;56.92;100843.35;1735917;82;20949;-41
2021/07/07 08:27:43;;;;;;;1.87;1.70;;;;;;;25.18;55.85;100843.53;1736210;81;20961;-42
2021/07/07 08:30:12;;;;;;;3.87;1.55;;;;;;;25.64;54.19;100844.54;1735943;82;21135;-40
2021/07/07 08:32:38;;;;;;;6.47;1.77;;;;;;;26.17;51.75;100852.48;1735912;82;20984;-41
2021/07/07 08:35:06;;;;;;;4.47;1.80;;;;;;;26.56;50.72;100854.25;1739318;82;20933;-41
2021/07/07 08:37:34;;;;;;;6.70;2.00;;;;;;;26.91;51.11;100852.39;1735864;82;20980;-39
2021/07/07 08:40:02;;;;;;;4.67;1.98;;;;;;;27.30;51.13;100853.20;1735811;82;20980;-41
2021/07/07 08:42:34;;;;;;;5.45;2.15;;;;;;;27.73;49.60;100856.27;1735966;82;21719;-42
2021/07/07 08:44:57;;;;;;;4.45;1.65;;;;;;;28.05;48.69;100856.63;1735314;82;20930;-41
2021/07/07 08:47:23;;;;;;;4.30;1.90;;;;;;;28.21;47.91;100864.66;1735916;82;20945;-42
2021/07/07 08:49:50;;;;;;;3.83;1.70;;;;;;;28.25;47.56;100857.58;1735882;82;20965;-39
2021/07/07 08:52:17;;;;;;;3.67;1.87;;;;;;;28.37;47.34;100859.65;1746956;81;20873;-39
2021/07/07 08:54:47;;;;;;;4.75;1.90;;;;;;;28.36;47.21;100857.14;1749866;82;21140;-40
2021/07/07 08:57:13;;;;;;;7.83;1.80;;;;;;;28.49;46.52;100854.23;1749773;82;20917;-41
2021/07/07 08:59:40;;;;;;;2.90;1.47;;;;;;;28.44;44.62;100863.13;1749728;80;20952;-40
2021/07/07 09:02:11;;;;;;;5.62;2.10;;;;;;;28.16;44.57;100858.87;1750189;82;20866;-39
2021/07/07 09:04:45;;;;;;;3.95;1.60;;;;;;;28.01;47.20;100863.20;1721925;82;20896;-41
2021/07/07 09:07:24;;;;;;;5.08;1.40;;;;;;;28.17;46.34;100866.73;1750086;80;21012;-42
2021/07/07 09:09:52;;;;;;;3.60;1.62;;;;;;;28.36;46.22;100867.78;1749738;82;21559;-41
2021/07/07 09:12:29;;;;;;;7.15;1.30;;;;;;;28.62;45.94;100867.30;1749930;82;21011;-42
2021/07/07 09:15:12;;;;;;;3.58;1.60;;;;;;;28.81;44.98;100861.19;1749843;80;20990;-39
2021/07/07 09:17:51;;;;;;;3.15;1.60;;;;;;;28.74;44.87;100869.35;1749851;82;21027;-42
2021/07/07 09:20:28;;;;;;;4.97;1.50;;;;;;;28.51;44.91;100872.23;1749931;80;21073;-39
2021/07/07 09:23:23;;;;;;;4.80;1.52;;;;;;;28.18;46.00;100875.56;1749675;81;20932;-41
2021/07/07 09:26:03;;;;;;;8.15;1.50;;;;;;;27.91;46.35;100872.92;1749825;80;20956;-40
2021/07/07 09:28:36;;;;;;;6.00;1.70;;;;;;;27.81;46.93;100875.06;1749917;82;21032;-41
2021/07/07 09:31:08;;;;;;;5.25;1.35;;;;;;;27.79;46.37;100882.33;1749820;82;21110;-40
2021/07/07 09:33:43;;;;;;;3.20;1.60;;;;;;;27.81;47.40;100880.38;1746233;82;20857;-41
2021/07/07 09:36:22;;;;;;;3.17;1.30;;;;;;;28.03;46.20;100883.86;1749798;82;20924;-43
2021/07/07 09:38:50;;;;;;;5.78;1.80;;;;;;;28.26;45.97;100877.06;1749806;82;20924;-42
2021/07/07 09:41:17;;;;;;;9.63;1.90;;;;;;;28.28;45.67;100885.75;1749767;82;20999;-41
2021/07/07 09:43:51;;;;;;;6.72;1.50;;;;;;;28.24;46.69;100883.01;1750352;82;20956;-42
2021/07/07 09:46:18;;;;;;;6.47;1.60;;;;;;;28.26;46.68;100885.05;1750200;82;21160;-42
2021/07/07 09:48:47;;;;;;;3.45;1.45;;;;;;;28.44;46.64;100883.08;1749768;82;20833;-40
2021/07/07 09:51:14;;;;;;;5.08;1.60;;;;;;;28.61;45.48;100891.73;1746695;81;20893;-41
2021/07/07 09:53:41;;;;;;;10.15;1.30;;;;;;;28.55;44.60;100893.61;1735881;82;20941;-43
2021/07/07 09:56:08;;;;;;;5.30;1.60;;;;;;;28.47;44.90;100890.80;1735919;82;21046;-42
2021/07/07 09:58:36;;;;;;;2.60;1.70;;;;;;;28.52;44.56;100892.56;1735931;82;21135;-40
2021/07/07 10:01:03;;;;;;;12.25;1.60;;;;;;;28.46;44.67;100902.42;1735796;81;20933;-41
2021/07/07 10:03:29;;;;;;;8.35;1.80;;;;;;;28.44;46.52;100892.40;1735798;81;21514;-40
2021/07/07 10:05:56;;;;;;;2.90;1.30;;;;;;;28.64;44.06;100898.11;1735798;81;21004;-41
2021/07/07 10:08:22;;;;;;;3.58;1.70;;;;;;;28.83;45.22;100888.52;1735848;82;20945;-40
2021/07/07 10:10:48;;;;;;;5.67;1.42;;;;;;;29.31;44.42;100889.55;1736152;82;21169;-39
2021/07/07 10:13:15;;;;;;;3.12;1.35;;;;;;;29.64;41.99;100886.10;1735742;82;21008;-38
2021/07/07 10:15:42;;;;;;;8.93;1.50;;;;;;;29.70;42.11;100893.17;1735724;81;20923;-41
2021/07/07 10:18:08;;;;;;;4.37;2.05;;;;;;;29.74;41.98;100885.23;1735919;82;20905;-39
2021/07/07 10:20:35;;;;;;;4.65;1.55;;;;;;;29.71;42.78;100896.19;1739563;82;20968;-40
2021/07/07 10:23:03;;;;;;;2.55;1.50;;;;;;;29.86;42.03;100892.57;1739344;82;21205;-41
2021/07/07 10:25:30;;;;;;;7.28;1.80;;;;;;;29.87;42.89;100899.11;1735764;82;21012;-39
2021/07/07 10:28:02;;;;;;;5.03;1.47;;;;;;;29.93;42.03;100899.00;1735795;82;21041;-40
2021/07/07 10:30:56;;;;;;;6.78;2.08;;;;;;;29.82;41.47;100900.87;1735680;81;21031;-41
2021/07/07 10:33:29;;;;;;;7.20;1.27;;;;;;;29.46;40.91;100901.13;1714961;82;21004;-41
2021/07/07 10:36:19;;;;;;;3.83;1.00;;;;;;;29.54;38.53;100896.78;1735237;82;21718;-41
2021/07/07 10:39:00;;;;;;;4.37;1.30;;;;;;;29.78;38.33;100894.14;1736042;82;21523;-41
2021/07/07 10:41:47;;;;;;;4.47;1.50;;;;;;;30.08;38.02;100897.59;1735872;82;21368;-41
2021/07/07 10:44:30;;;;;;;1.60;1.30;;;;;;;30.34;37.24;100902.27;1736137;82;20988;-43
2021/07/07 10:47:06;;;;;;;4.58;1.20;;;;;;;30.43;37.25;100902.36;1735819;82;20996;-40
2021/07/07 10:49:39;;;;;;;6.67;1.40;;;;;;;30.43;39.18;100902.36;1714915;82;21945;-42
2021/07/07 10:52:08;;;;;;;2.22;1.40;;;;;;;30.45;37.46;100895.06;1722202;81;21026;-39
2021/07/07 10:54:40;;;;;;;5.12;1.55;;;;;;;30.40;36.49;100888.31;1754749;81;21454;-39
2021/07/07 10:57:10;;;;;;;5.00;1.42;;;;;;;30.06;37.97;100891.56;1757401;80;21374;-41
2021/07/07 10:59:41;;;;;;;2.60;1.30;;;;;;;29.87;39.23;100899.11;1729927;81;20877;-40
2021/07/07 11:02:25;;;;;;;4.65;1.17;;;;;;;29.73;36.69;100882.21;1757555;81;21088;-41
2021/07/07 11:04:58;;;;;;;5.50;1.55;;;;;;;29.62;38.21;100892.55;1729841;81;20984;-41
2021/07/07 11:07:36;;;;;;;4.30;1.40;;;;;;;29.77;37.90;100891.13;1757422;81;20920;-41
2021/07/07 11:10:11;;;;;;;4.47;1.10;;;;;;;29.88;39.66;100891.93;1757465;81;20988;-41
2021/07/07 11:12:43;;;;;;;5.73;1.30;;;;;;;29.96;38.05;100886.22;1757743;81;20963;-38
2021/07/07 11:15:22;;;;;;;5.17;1.40;;;;;;;29.99;38.62;100888.25;1757981;81;21257;-39
2021/07/07 11:18:00;;;;;;;3.17;1.30;;;;;;;30.05;38.16;100888.55;1757561;81;20964;-39
2021/07/07 11:20:29;;;;;;;3.02;1.37;;;;;;;30.01;38.50;100894.28;1757567;81;20964;-39
2021/07/07 11:23:10;;;;;;;6.00;2.05;;;;;;;30.08;37.80;100890.09;1757477;81;21419;-40
2021/07/07 11:25:39;;;;;;;2.67;1.55;;;;;;;30.01;39.66;100896.95;1757519;80;20964;-39
2021/07/07 11:28:11;;;;;;;1.77;1.27;;;;;;;30.10;39.73;100903.62;1729482;81;21715;-40
2021/07/07 11:30:36;;;;;;;2.80;1.45;;;;;;;30.18;38.46;100894.03;1757893;81;20952;-41